createdAt,value
2019-05-10T00:00:12.095Z,99691.27
2019-05-10T00:02:04.713Z,99691.13
2019-05-10T00:03:57.091Z,99688.40
2019-05-10T00:05:49.693Z,99694.36
2019-05-10T00:07:42.076Z,99699.22
2019-05-10T00:09:15.925Z,99702.09
2019-05-10T00:10:52.834Z,99701.29
2019-05-10T00:12:41.315Z,99701.76
2019-05-10T00:14:38.662Z,99701.24
2019-05-10T00:16:13.763Z,99705.62
2019-05-10T00:17:48.589Z,99705.88
2019-05-10T00:19:23.511Z,99705.19
2019-05-10T00:20:58.540Z,99702.70
2019-05-10T00:22:33.369Z,99706.26
2019-05-10T00:24:08.039Z,99711.47
2019-05-10T00:25:43.095Z,99709.50
2019-05-10T00:27:18.115Z,99712.70
2019-05-10T00:28:53.024Z,99708.50
2019-05-10T00:30:27.729Z,99710.89
2019-05-10T00:32:02.562Z,99709.98
2019-05-10T00:33:37.219Z,99705.14
2019-05-10T00:35:12.137Z,99713.85
2019-05-10T00:36:46.791Z,99712.09
2019-05-10T00:38:21.623Z,99718.86
2019-05-10T00:39:56.338Z,99711.09
2019-05-10T00:41:31.167Z,99713.85
2019-05-10T00:43:05.896Z,99714.23
2019-05-10T00:44:40.738Z,99713.16
2019-05-10T00:46:15.388Z,99716.02
2019-05-10T00:47:50.216Z,99712.33
2019-05-10T00:49:24.938Z,99721.25
2019-05-10T00:50:59.775Z,99720.80
2019-05-10T00:52:34.444Z,99718.36
2019-05-10T00:54:09.365Z,99718.16
2019-05-10T00:55:44.085Z,99716.08
2019-05-10T00:57:19.053Z,99715.50
2019-05-10T00:58:53.712Z,99723.27
2019-05-10T01:00:34.794Z,99719.23
2019-05-10T01:02:09.439Z,99727.73
2019-05-10T01:03:44.276Z,99723.53
2019-05-10T01:05:18.908Z,99719.06
2019-05-10T01:06:56.443Z,99736.89
2019-05-10T01:08:31.390Z,99733.97
2019-05-10T01:10:06.637Z,99732.64
2019-05-10T01:11:41.263Z,99735.06
2019-05-10T01:13:16.165Z,99735.02
2019-05-10T01:14:50.840Z,99737.73
2019-05-10T01:16:25.650Z,99737.95
2019-05-10T01:18:00.281Z,99737.47
2019-05-10T01:19:35.215Z,99741.08
2019-05-10T01:21:09.863Z,99736.77
2019-05-10T01:22:44.693Z,99734.63
2019-05-10T01:24:19.363Z,99736.64
2019-05-10T01:25:54.209Z,99737.94
2019-05-10T01:27:28.894Z,99738.73
2019-05-10T01:29:03.818Z,99740.84
2019-05-10T01:30:38.548Z,99739.41
2019-05-10T01:32:13.542Z,99742.84
2019-05-10T01:33:48.210Z,99744.33
2019-05-10T01:35:23.051Z,99752.10
2019-05-10T01:36:57.684Z,99750.19
2019-05-10T01:38:32.504Z,99758.97
2019-05-10T01:40:07.298Z,99753.91
2019-05-10T01:41:42.139Z,99752.98
2019-05-10T01:43:16.858Z,99755.19
2019-05-10T01:44:51.673Z,99761.37
2019-05-10T01:46:26.367Z,99755.19
2019-05-10T01:48:01.188Z,99760.25
2019-05-10T01:49:35.899Z,99760.11
2019-05-10T01:51:11.072Z,99759.50
2019-05-10T01:52:45.667Z,99756.58
2019-05-10T01:54:20.599Z,99758.38
2019-05-10T01:55:55.235Z,99768.48
2019-05-10T01:57:30.088Z,99773.15
2019-05-10T01:59:04.727Z,99770.74
2019-05-10T02:00:39.635Z,99769.46
2019-05-10T02:02:14.354Z,99772.20
2019-05-10T02:03:49.184Z,99777.46
2019-05-10T02:05:23.847Z,99769.55
2019-05-10T02:06:58.672Z,99770.80
2019-05-10T02:08:33.333Z,99774.69
2019-05-10T02:10:08.241Z,99770.84
2019-05-10T02:11:42.981Z,99775.94
2019-05-10T02:13:17.829Z,99779.10
2019-05-10T02:14:52.579Z,99779.10
2019-05-10T02:16:27.407Z,99781.69
2019-05-10T02:18:02.112Z,99782.88
2019-05-10T02:19:36.970Z,99789.81
2019-05-10T02:21:11.707Z,99787.35
2019-05-10T02:22:46.582Z,99791.80
2019-05-10T02:24:21.398Z,99783.87
2019-05-10T02:26:09.040Z,99781.20
2019-05-10T02:27:32.606Z,99788.84
2019-05-10T02:29:07.415Z,99789.52
2019-05-10T02:30:42.093Z,99791.38
2019-05-10T02:32:16.929Z,99793.71
2019-05-10T02:33:51.576Z,99793.71
2019-05-10T02:35:26.501Z,99796.53
2019-05-10T02:37:02.224Z,99796.53
2019-05-10T02:38:37.121Z,99801.01
2019-05-10T02:40:12.119Z,99801.27
2019-05-10T02:41:46.964Z,99803.47
2019-05-10T02:43:21.694Z,99800.22
2019-05-10T02:44:56.620Z,99802.67
2019-05-10T02:46:31.255Z,99803.92
2019-05-10T02:48:06.099Z,99807.84
2019-05-10T02:49:40.753Z,99815.59
2019-05-10T02:51:17.841Z,99815.59
2019-05-10T02:52:52.493Z,99810.84
2019-05-10T02:54:27.345Z,99811.78
2019-05-10T02:56:03.802Z,99807.77
2019-05-10T02:57:38.822Z,99818.45
2019-05-10T02:59:13.763Z,99814.84
2019-05-10T03:00:50.115Z,99817.50
2019-05-10T03:02:25.861Z,99821.56
2019-05-10T03:04:02.435Z,99818.86
2019-05-10T03:05:37.804Z,99820.09
2019-05-10T03:07:12.671Z,99821.64
2019-05-10T03:08:48.947Z,99822.19
2019-05-10T03:10:23.844Z,99825.90
2019-05-10T03:12:01.718Z,99825.58
2019-05-10T03:13:36.547Z,99825.58
2019-05-10T03:15:12.282Z,99823.65
2019-05-10T03:16:50.435Z,99820.52
2019-05-10T03:18:27.238Z,99823.52
2019-05-10T03:20:02.503Z,99829.02
2019-05-10T03:21:39.242Z,99826.31
2019-05-10T03:23:14.280Z,99832.30
2019-05-10T03:24:50.542Z,99825.64
2019-05-10T03:26:25.412Z,99837.81
2019-05-10T03:28:00.042Z,99840.67
2019-05-10T03:29:34.935Z,99836.91
2019-05-10T03:31:09.689Z,99828.14
2019-05-10T03:32:44.632Z,99840.55
2019-05-10T03:34:19.345Z,99843.03
2019-05-10T03:35:54.253Z,99842.47
2019-05-10T03:37:28.909Z,99838.98
2019-05-10T03:40:56.131Z,99845.55
2019-05-10T03:42:31.073Z,99837.62
2019-05-10T03:44:05.746Z,99841.05
2019-05-10T03:45:40.618Z,99841.05
2019-05-10T03:47:15.406Z,99842.89
2019-05-10T03:48:50.270Z,99844.13
2019-05-10T03:50:25.341Z,99843.09
2019-05-10T03:52:00.157Z,99837.59
2019-05-10T03:53:34.892Z,99837.59
2019-05-10T03:55:09.785Z,99845.64
2019-05-10T03:56:44.436Z,99850.13
2019-05-10T03:58:19.279Z,99849.14
2019-05-10T03:59:53.941Z,99847.64
2019-05-10T04:01:29.758Z,99849.72
2019-05-10T04:03:04.500Z,99860.20
2019-05-10T04:04:39.402Z,99864.09
2019-05-10T04:06:14.041Z,99849.20
2019-05-10T04:07:48.907Z,99863.36
2019-05-10T04:09:23.660Z,99863.50
2019-05-10T04:10:58.533Z,99863.04
2019-05-10T04:12:33.272Z,99875.89
2019-05-10T04:14:08.134Z,99878.02
2019-05-10T04:15:42.818Z,99883.35
2019-05-10T04:17:17.651Z,99883.35
2019-05-10T04:18:52.380Z,99885.97
2019-05-10T04:20:27.288Z,99887.02
2019-05-10T04:22:01.974Z,99883.64
2019-05-10T04:23:36.846Z,99881.61
2019-05-10T04:25:11.632Z,99890.91
2019-05-10T04:26:46.607Z,99886.20
2019-05-10T04:28:21.261Z,99896.27
2019-05-10T04:29:56.121Z,99896.27
2019-05-10T04:31:30.789Z,99893.06
2019-05-10T04:33:05.954Z,99899.67
2019-05-10T04:34:40.596Z,99898.69
2019-05-10T04:36:15.430Z,99898.69
2019-05-10T04:37:50.070Z,99908.13
2019-05-10T04:39:24.986Z,99906.09
2019-05-10T04:40:59.706Z,99906.09
2019-05-10T04:42:34.627Z,99917.14
2019-05-10T04:44:09.303Z,99910.11
2019-05-10T04:45:44.147Z,99910.11
2019-05-10T04:47:19.915Z,99911.11
2019-05-10T04:48:54.774Z,99921.56
2019-05-10T04:50:29.450Z,99921.56
2019-05-10T04:52:04.451Z,99929.60
2019-05-10T04:53:39.097Z,99930.25
2019-05-10T04:55:14.226Z,99921.09
2019-05-10T04:56:48.915Z,99921.09
2019-05-10T04:58:23.856Z,99929.00
2019-05-10T04:59:58.483Z,99922.58
2019-05-10T05:01:33.360Z,99928.28
2019-05-10T05:03:08.034Z,99930.33
2019-05-10T05:04:42.886Z,99936.69
2019-05-10T05:06:17.528Z,99936.69
2019-05-10T05:07:52.366Z,99936.48
2019-05-10T05:09:27.040Z,99936.48
2019-05-10T05:11:01.968Z,99934.59
2019-05-10T05:12:36.633Z,99947.30
2019-05-10T05:14:11.465Z,99947.30
2019-05-10T05:15:46.147Z,99949.31
2019-05-10T05:17:20.994Z,99951.91
2019-05-10T05:18:55.661Z,99958.16
2019-05-10T05:20:30.537Z,99963.65
2019-05-10T05:22:05.358Z,99954.95
2019-05-10T05:23:40.218Z,99948.26
2019-05-10T05:25:15.054Z,99955.26
2019-05-10T05:26:49.911Z,99962.19
2019-05-10T05:28:24.764Z,99954.33
2019-05-10T05:29:59.732Z,99950.64
2019-05-10T05:31:34.406Z,99957.27
2019-05-10T05:33:09.242Z,99956.48
2019-05-10T05:34:43.919Z,99957.11
2019-05-10T05:36:18.786Z,99961.03
2019-05-10T05:37:53.530Z,99688.28
2019-05-10T05:39:28.422Z,99969.13
2019-05-10T05:41:03.125Z,99967.05
2019-05-10T05:42:37.986Z,99969.69
2019-05-10T05:44:12.683Z,99973.50
2019-05-10T05:45:48.590Z,99967.98
2019-05-10T05:47:23.276Z,99981.28
2019-05-10T05:48:58.131Z,99979.97
2019-05-10T05:50:32.787Z,99985.60
2019-05-10T05:52:08.707Z,99987.87
2019-05-10T05:53:44.825Z,99994.06
2019-05-10T05:55:22.939Z,99988.16
2019-05-10T05:56:56.137Z,99985.56
2019-05-10T05:58:31.067Z,99990.14
2019-05-10T06:00:06.810Z,99992.46
2019-05-10T06:01:41.708Z,99994.08
2019-05-10T06:03:19.452Z,99995.58
2019-05-10T06:04:52.910Z,99990.02
2019-05-10T06:06:27.548Z,99997.98
2019-05-10T06:08:02.531Z,99994.91
2019-05-10T06:09:38.000Z,99987.03
2019-05-10T06:11:13.717Z,99989.16
2019-05-10T06:12:50.438Z,99987.16
2019-05-10T06:14:25.093Z,99987.27
2019-05-10T06:16:00.708Z,99989.55
2019-05-10T06:17:36.315Z,99991.73
2019-05-10T06:19:11.061Z,99991.55
2019-05-10T06:20:47.014Z,99995.84
2019-05-10T06:22:21.749Z,100001.98
2019-05-10T06:23:59.353Z,99994.61
2019-05-10T06:25:39.706Z,100000.04
2019-05-10T06:27:09.469Z,99998.25
2019-05-10T06:28:58.550Z,100000.41
2019-05-10T06:30:20.804Z,100003.78
2019-05-10T06:31:58.706Z,100010.64
2019-05-10T06:33:32.043Z,100007.37
2019-05-10T06:35:06.753Z,100008.34
2019-05-10T06:36:41.662Z,100009.92
2019-05-10T06:38:16.373Z,100016.55
2019-05-10T06:39:52.393Z,100013.45
2019-05-10T06:41:27.059Z,100015.19
2019-05-10T06:43:07.119Z,100015.19
2019-05-10T06:44:38.409Z,100018.80
2019-05-10T06:46:13.320Z,100019.91
2019-05-10T06:47:49.681Z,100022.02
2019-05-10T06:49:24.538Z,100018.84
2019-05-10T06:51:03.025Z,100020.32
2019-05-10T06:52:35.806Z,100023.77
2019-05-10T06:54:10.466Z,100026.39
2019-05-10T06:55:45.284Z,100022.17
2019-05-10T06:57:19.973Z,100020.97
2019-05-10T06:58:54.972Z,100027.72
2019-05-10T07:00:29.755Z,100030.58
2019-05-10T07:02:04.673Z,100025.48
2019-05-10T07:03:39.324Z,100028.02
2019-05-10T07:05:14.235Z,100027.67
2019-05-10T07:06:48.910Z,100027.37
2019-05-10T07:08:24.037Z,100025.45
2019-05-10T07:10:05.710Z,100021.58
2019-05-10T07:11:35.328Z,100021.01
2019-05-10T07:13:11.667Z,100017.56
2019-05-10T07:14:46.913Z,100022.48
2019-05-10T07:16:24.451Z,100024.80
2019-05-10T07:17:58.313Z,100021.51
2019-05-10T07:19:58.289Z,100024.47
2019-05-10T07:21:33.132Z,100029.92
2019-05-10T07:23:08.028Z,100027.67
2019-05-10T07:24:43.042Z,100027.77
2019-05-10T07:26:24.299Z,100027.36
2019-05-10T07:27:54.401Z,100033.56
2019-05-10T07:29:30.472Z,100033.56
2019-05-10T07:31:05.793Z,100031.00
2019-05-10T07:32:40.591Z,100037.86
2019-05-10T07:34:17.457Z,100037.86
2019-05-10T07:35:51.956Z,100040.87
2019-05-10T07:37:26.793Z,100037.52
2019-05-10T07:39:02.644Z,100040.69
2019-05-10T07:40:38.235Z,100045.75
2019-05-10T07:42:12.925Z,100045.75
2019-05-10T07:43:48.353Z,100044.50
2019-05-10T07:45:25.730Z,100050.11
2019-05-10T07:47:00.021Z,100039.52
2019-05-10T07:48:34.739Z,100036.94
2019-05-10T07:50:11.590Z,100053.09
2019-05-10T07:51:46.433Z,100053.09
2019-05-10T07:53:22.752Z,100053.44
2019-05-10T07:54:57.684Z,100062.69
2019-05-10T07:56:32.500Z,100066.70
2019-05-10T07:58:07.423Z,100066.70
2019-05-10T07:59:50.878Z,100054.03
2019-05-10T08:01:29.416Z,100054.03
2019-05-10T08:03:07.609Z,100069.92
2019-05-10T08:04:33.568Z,100069.92
2019-05-10T08:06:09.137Z,100061.55
2019-05-10T08:07:43.798Z,100061.55
2019-05-10T08:09:19.211Z,100067.84
2019-05-10T08:10:54.222Z,100070.02
2019-05-10T08:12:29.136Z,100076.33
2019-05-10T08:14:06.412Z,100076.33
2019-05-10T08:15:40.535Z,100077.30
2019-05-10T08:17:15.187Z,100082.38
2019-05-10T08:18:50.056Z,100082.38
2019-05-10T08:20:38.204Z,100083.19
2019-05-10T08:22:04.329Z,100083.19
2019-05-10T08:23:38.045Z,100083.63
2019-05-10T08:25:15.404Z,100083.63
2019-05-10T08:26:49.321Z,100085.86
2019-05-10T08:28:27.955Z,100085.86
2019-05-10T08:30:25.077Z,100097.78
2019-05-10T08:31:40.787Z,100097.78
2019-05-10T08:33:15.130Z,100107.50
2019-05-10T08:34:53.112Z,100109.70
2019-05-10T08:36:26.453Z,100109.70
2019-05-10T08:38:02.345Z,100108.34
2019-05-10T08:39:45.122Z,100116.58
2019-05-10T08:41:18.314Z,100118.56
2019-05-10T08:43:03.205Z,100118.56
2019-05-10T08:44:28.977Z,100121.80
2019-05-10T08:46:03.636Z,100121.80
2019-05-10T08:47:38.991Z,100129.88
2019-05-10T08:49:14.071Z,100129.88
2019-05-10T08:50:54.282Z,100124.75
2019-05-10T08:52:30.684Z,100136.33
2019-05-10T08:54:01.949Z,100135.28
2019-05-10T08:55:36.611Z,100142.13
2019-05-10T08:57:18.246Z,100142.13
2019-05-10T08:58:48.099Z,100142.20
2019-05-10T09:00:41.058Z,100155.56
2019-05-10T09:02:01.952Z,100145.60
2019-05-10T09:03:36.901Z,100145.60
2019-05-10T09:05:12.462Z,100158.06
2019-05-10T09:06:55.597Z,100159.83
2019-05-10T09:08:28.566Z,100158.74
2019-05-10T09:10:03.717Z,100161.95
2019-05-10T09:11:38.489Z,100163.06
2019-05-10T09:13:15.017Z,100164.80
2019-05-10T09:14:57.445Z,100164.80
2019-05-10T09:16:29.040Z,100166.28
2019-05-10T09:18:06.513Z,100167.77
2019-05-10T09:19:41.856Z,100172.41
2019-05-10T09:21:16.208Z,100172.41
2019-05-10T09:22:52.793Z,100179.06
2019-05-10T09:24:27.443Z,100178.69
2019-05-10T09:26:10.108Z,100190.11
2019-05-10T09:27:38.745Z,100178.16
2019-05-10T09:29:13.662Z,100183.05
2019-05-10T09:30:59.331Z,100188.52
2019-05-10T09:32:28.796Z,100188.52
2019-05-10T09:34:02.501Z,100193.76
2019-05-10T09:35:38.844Z,100206.59
2019-05-10T09:37:17.581Z,100199.83
2019-05-10T09:38:52.685Z,100201.53
2019-05-10T09:40:27.664Z,100199.57
2019-05-10T09:42:08.069Z,100204.81
2019-05-10T09:43:39.783Z,100209.13
2019-05-10T09:45:15.637Z,100214.14
2019-05-10T09:46:52.451Z,100214.14
2019-05-10T09:48:27.125Z,100222.38
2019-05-10T09:50:02.399Z,100223.92
2019-05-10T09:51:37.563Z,100224.23
2019-05-10T09:53:15.311Z,100225.59
2019-05-10T09:54:49.535Z,100229.20
2019-05-10T09:56:24.578Z,100230.36
2019-05-10T09:57:59.476Z,100231.09
2019-05-10T09:59:34.136Z,100233.70
2019-05-10T10:01:17.237Z,100238.28
2019-05-10T10:02:47.716Z,100240.11
2019-05-10T10:04:21.874Z,100243.22
2019-05-10T10:06:05.167Z,100250.87
2019-05-10T10:07:33.725Z,100244.80
2019-05-10T10:09:11.088Z,100251.78
2019-05-10T10:10:47.583Z,100250.41
2019-05-10T10:12:22.443Z,100254.52
2019-05-10T10:13:59.801Z,100260.69
2019-05-10T10:15:34.332Z,100260.75
2019-05-10T10:17:09.288Z,100266.03
2019-05-10T10:18:43.992Z,100262.05
2019-05-10T10:20:18.989Z,100262.05
2019-05-10T10:21:53.629Z,100273.83
2019-05-10T10:23:30.711Z,100276.12
2019-05-10T10:25:07.195Z,100277.97
2019-05-10T10:26:41.526Z,100285.20
2019-05-10T10:28:19.120Z,100291.08
2019-05-10T10:29:52.719Z,100286.73
2019-05-10T10:31:33.102Z,100288.06
2019-05-10T10:33:05.646Z,100288.42
2019-05-10T10:34:43.257Z,100285.69
2019-05-10T10:36:18.132Z,100284.61
2019-05-10T10:37:57.332Z,100288.34
2019-05-10T10:39:29.332Z,100291.06
2019-05-10T10:41:03.990Z,100279.47
2019-05-10T10:42:38.799Z,100279.47
2019-05-10T10:44:14.433Z,100289.28
2019-05-10T10:45:49.329Z,100296.56
2019-05-10T10:47:30.441Z,100288.71
2019-05-10T10:49:00.584Z,100288.71
2019-05-10T10:50:35.283Z,100289.25
2019-05-10T10:52:11.204Z,100288.66
2019-05-10T10:53:47.054Z,100295.28
2019-05-10T10:55:22.043Z,100289.21
2019-05-10T10:56:59.278Z,100291.81
2019-05-10T10:58:33.365Z,100295.48
2019-05-10T11:00:08.977Z,100294.56
2019-05-10T11:01:49.869Z,100293.36
2019-05-10T11:03:23.990Z,100299.98
2019-05-10T11:04:59.127Z,100302.45
2019-05-10T11:06:33.805Z,100302.52
2019-05-10T11:08:10.984Z,100303.17
2019-05-10T11:09:45.002Z,100313.81
2019-05-10T11:11:19.828Z,100312.55
2019-05-10T11:12:56.235Z,100304.91
2019-05-10T11:14:31.933Z,100311.20
2019-05-10T11:16:14.086Z,100318.11
2019-05-10T11:17:44.057Z,100314.05
2019-05-10T11:19:20.473Z,100320.19
2019-05-10T11:20:55.549Z,100324.11
2019-05-10T11:22:31.759Z,100323.06
2019-05-10T11:24:10.398Z,100327.09
2019-05-10T11:25:54.687Z,100328.41
2019-05-10T11:27:19.640Z,100332.51
2019-05-10T11:28:54.271Z,100331.22
2019-05-10T11:30:29.167Z,100325.25
2019-05-10T11:32:14.640Z,100325.59
2019-05-10T11:33:41.465Z,100323.17
2019-05-10T11:35:19.031Z,100336.21
2019-05-10T11:36:53.429Z,100338.73
2019-05-10T11:38:28.075Z,100335.77
2019-05-10T11:40:04.154Z,100335.77
2019-05-10T11:41:38.862Z,100332.63
2019-05-10T11:43:17.384Z,100350.67
2019-05-10T11:44:54.344Z,100347.57
2019-05-10T11:46:28.031Z,100350.59
2019-05-10T11:48:02.900Z,100357.22
2019-05-10T11:49:37.748Z,100354.77
2019-05-10T11:51:17.452Z,100358.80
2019-05-10T11:52:51.388Z,100358.30
2019-05-10T11:54:25.511Z,100358.30
2019-05-10T11:56:01.996Z,100360.73
2019-05-10T11:57:43.252Z,100374.02
2019-05-10T11:59:16.432Z,100376.59
2019-05-10T12:00:55.938Z,100371.45
2019-05-10T12:02:37.932Z,100380.92
2019-05-10T12:04:05.161Z,100377.62
2019-05-10T12:05:42.273Z,100380.14
2019-05-10T12:07:15.887Z,100382.60
2019-05-10T12:08:56.888Z,100382.60
2019-05-10T12:10:27.049Z,100384.84
2019-05-10T12:12:03.340Z,100387.64
2019-05-10T12:13:38.327Z,100387.64
2019-05-10T12:15:14.000Z,100391.03
2019-05-10T12:16:54.220Z,100387.33
2019-05-10T12:18:27.236Z,100387.33
2019-05-10T12:20:02.839Z,100390.81
2019-05-10T12:21:37.940Z,100399.09
2019-05-10T12:23:22.781Z,100393.26
2019-05-10T12:25:06.239Z,100397.62
2019-05-10T12:28:02.338Z,100391.47
2019-05-10T12:29:36.999Z,100391.47
2019-05-10T12:31:15.070Z,100406.98
2019-05-10T12:32:57.168Z,100397.58
2019-05-10T12:34:24.702Z,100401.12
2019-05-10T12:35:59.338Z,100403.07
2019-05-10T12:37:34.161Z,100400.72
2019-05-10T12:39:11.527Z,100402.53
2019-05-10T12:40:46.032Z,100396.80
2019-05-10T12:42:21.861Z,100398.86
2019-05-10T12:44:02.764Z,100404.91
2019-05-10T12:45:33.267Z,100410.80
2019-05-10T12:47:08.169Z,100404.16
2019-05-10T12:48:42.852Z,100404.73
2019-05-10T12:50:17.959Z,100403.76
2019-05-10T12:51:52.638Z,100404.18
2019-05-10T12:53:27.524Z,100408.30
2019-05-10T12:55:02.245Z,100405.80
2019-05-10T12:56:44.020Z,100410.80
2019-05-10T12:58:14.166Z,100410.69
2019-05-10T12:59:49.063Z,100414.92
2019-05-10T13:01:25.578Z,100413.01
2019-05-10T13:03:12.353Z,100413.52
2019-05-10T13:04:40.753Z,100414.67
2019-05-10T13:06:13.150Z,100410.84
2019-05-10T13:07:47.812Z,100415.80
2019-05-10T13:09:36.016Z,100420.83
2019-05-10T13:10:59.292Z,100417.03
2019-05-10T13:12:36.749Z,100419.55
2019-05-10T13:14:10.494Z,100415.98
2019-05-10T13:15:46.404Z,100416.19
2019-05-10T13:17:21.041Z,100422.20
2019-05-10T13:18:55.848Z,100424.12
2019-05-10T13:20:35.957Z,100425.17
2019-05-10T13:22:07.590Z,100426.04
2019-05-10T13:23:42.323Z,100430.00
2019-05-10T13:25:17.476Z,100427.23
2019-05-10T13:26:52.283Z,100425.91
2019-05-10T13:28:27.120Z,100428.35
2019-05-10T13:30:01.876Z,100433.85
2019-05-10T13:31:42.012Z,100434.91
2019-05-10T13:33:27.746Z,100439.46
2019-05-10T13:34:49.665Z,100441.51
2019-05-10T13:36:24.329Z,100445.78
2019-05-10T13:38:03.961Z,100446.50
2019-05-10T13:39:35.691Z,100442.61
2019-05-10T13:41:10.509Z,100453.81
2019-05-10T13:42:46.043Z,100454.27
2019-05-10T13:44:21.046Z,100447.09
2019-05-10T13:45:55.699Z,100457.94
2019-05-10T13:47:30.514Z,100455.16
2019-05-10T13:49:05.277Z,100452.21
2019-05-10T13:50:41.209Z,100453.69
2019-05-10T13:52:15.844Z,100453.59
2019-05-10T13:53:53.851Z,100457.61
2019-05-10T13:55:27.092Z,100452.80
2019-05-10T13:57:01.937Z,100453.84
2019-05-10T13:58:36.595Z,100452.69
2019-05-10T14:00:11.819Z,100445.45
2019-05-10T14:01:49.780Z,100450.70
2019-05-10T14:03:22.975Z,100444.25
2019-05-10T14:04:57.638Z,100450.83
2019-05-10T14:06:32.531Z,100453.40
2019-05-10T14:08:07.174Z,100452.05
2019-05-10T14:09:42.033Z,100456.04
2019-05-10T14:11:16.709Z,100456.46
2019-05-10T14:12:56.150Z,100460.32
2019-05-10T14:14:27.936Z,100469.84
2019-05-10T14:16:03.156Z,100468.10
2019-05-10T14:17:37.846Z,100467.28
2019-05-10T14:19:15.909Z,100472.30
2019-05-10T14:20:50.105Z,100467.61
2019-05-10T14:22:25.005Z,100471.54
2019-05-10T14:23:59.680Z,100472.36
2019-05-10T14:25:36.639Z,100479.25
2019-05-10T14:27:10.866Z,100483.41
2019-05-10T14:28:47.226Z,100480.02
2019-05-10T14:30:22.113Z,100483.47
2019-05-10T14:31:56.946Z,100487.41
2019-05-10T14:33:31.592Z,100484.37
2019-05-10T14:35:07.093Z,100480.86
2019-05-10T14:36:43.548Z,100478.17
2019-05-10T14:38:18.377Z,100477.77
2019-05-10T14:39:53.122Z,100481.73
2019-05-10T14:41:27.971Z,100484.16
2019-05-10T14:43:02.659Z,100486.30
2019-05-10T14:44:38.664Z,100493.98
2019-05-10T14:46:14.171Z,100486.21
2019-05-10T14:47:50.502Z,100485.85
2019-05-10T14:49:25.340Z,100481.97
2019-05-10T14:51:03.129Z,100474.34
2019-05-10T14:52:36.539Z,100486.21
2019-05-10T14:54:11.416Z,100492.26
2019-05-10T14:55:46.056Z,100495.21
2019-05-10T14:57:20.908Z,100485.80
2019-05-10T14:58:55.570Z,100494.42
2019-05-10T15:00:30.558Z,100492.08
2019-05-10T15:02:05.222Z,100493.57
2019-05-10T15:03:45.507Z,100492.41
2019-05-10T15:05:18.308Z,100492.41
2019-05-10T15:06:53.180Z,100504.98
2019-05-10T15:08:28.969Z,100501.91
2019-05-10T15:10:04.093Z,100501.49
2019-05-10T15:11:38.755Z,100511.53
2019-05-10T15:13:13.689Z,100505.30
2019-05-10T15:14:48.353Z,100506.87
2019-05-10T15:16:27.076Z,100499.24
2019-05-10T15:18:01.915Z,100513.06
2019-05-10T15:19:36.062Z,100512.45
2019-05-10T15:21:10.716Z,100512.53
2019-05-10T15:22:46.509Z,100506.66
2019-05-10T15:24:21.229Z,100506.66
2019-05-10T15:26:03.596Z,100510.11
2019-05-10T15:27:35.563Z,100509.73
2019-05-10T15:29:14.873Z,100502.30
2019-05-10T15:30:52.063Z,100508.13
2019-05-10T15:32:23.332Z,100510.63
2019-05-10T15:33:58.067Z,100511.44
2019-05-10T15:35:34.186Z,100514.05
2019-05-10T15:37:10.555Z,100513.94
2019-05-10T15:38:50.787Z,100513.64
2019-05-10T15:40:22.262Z,100522.48
2019-05-10T15:41:59.315Z,100518.87
2019-05-10T15:43:34.720Z,100526.61
2019-05-10T15:45:14.670Z,100527.94
2019-05-10T15:46:46.472Z,100523.03
2019-05-10T15:48:21.396Z,100519.92
2019-05-10T15:50:00.124Z,100518.41
2019-05-10T15:51:36.280Z,100527.38
2019-05-10T15:53:08.938Z,100524.97
2019-05-10T15:54:46.886Z,100524.97
2019-05-10T15:56:20.185Z,100527.31
2019-05-10T15:57:57.833Z,100539.13
2019-05-10T15:59:33.652Z,100531.83
2019-05-10T16:01:08.379Z,100535.59
2019-05-10T16:02:43.019Z,100538.34
2019-05-10T16:04:17.909Z,100539.75
2019-05-10T16:06:00.331Z,100543.63
2019-05-10T16:07:29.119Z,100547.80
2019-05-10T16:09:17.133Z,100547.08
2019-05-10T16:10:41.683Z,100546.70
2019-05-10T16:12:16.407Z,100540.23
2019-05-10T16:13:54.668Z,100541.05
2019-05-10T16:15:27.657Z,100540.73
2019-05-10T16:17:02.513Z,100542.55
2019-05-10T16:18:39.861Z,100543.14
2019-05-10T16:20:13.856Z,100544.00
2019-05-10T16:21:51.982Z,100539.08
2019-05-10T16:23:25.032Z,100542.77
2019-05-10T16:25:02.501Z,100541.72
2019-05-10T16:26:36.259Z,100537.88
2019-05-10T16:28:15.513Z,100536.34
2019-05-10T16:29:47.439Z,100534.25
2019-05-10T16:31:22.095Z,100532.36
2019-05-10T16:32:56.950Z,100531.16
2019-05-10T16:34:32.656Z,100532.42
2019-05-10T16:36:09.282Z,100536.97
2019-05-10T16:37:43.957Z,100542.59
2019-05-10T16:39:18.846Z,100538.30
2019-05-10T16:40:58.714Z,100542.61
2019-05-10T16:42:34.590Z,100543.10
2019-05-10T16:44:06.685Z,100541.45
2019-05-10T16:45:47.375Z,100540.01
2019-05-10T16:47:23.417Z,100549.39
2019-05-10T16:48:58.289Z,100547.53
2019-05-10T16:50:33.889Z,100549.03
2019-05-10T16:52:08.979Z,100551.55
2019-05-10T16:54:01.858Z,100552.27
2019-05-10T16:55:41.134Z,100557.84
2019-05-10T16:57:13.204Z,100559.03
2019-05-10T16:58:53.092Z,100553.94
2019-05-10T17:00:25.065Z,100558.06
2019-05-10T17:02:04.458Z,100561.41
2019-05-10T17:03:36.296Z,100553.95
2019-05-10T17:05:15.143Z,100555.91
2019-05-10T17:06:47.616Z,100556.94
2019-05-10T17:08:22.801Z,100554.30
2019-05-10T17:09:57.500Z,100553.67
2019-05-10T17:11:32.361Z,100565.81
2019-05-10T17:13:07.006Z,100559.05
2019-05-10T17:14:41.835Z,100565.66
2019-05-10T17:16:18.529Z,100568.08
2019-05-10T17:17:53.029Z,100575.77
2019-05-10T17:19:33.314Z,100572.61
2019-05-10T17:21:04.188Z,100575.38
2019-05-10T17:23:07.645Z,100573.52
2019-05-10T17:24:36.059Z,100572.59
2019-05-10T17:26:10.773Z,100575.02
2019-05-10T17:27:50.443Z,100576.61
2019-05-10T17:29:22.009Z,100565.34
2019-05-10T17:30:59.825Z,100572.87
2019-05-10T17:32:33.214Z,100576.09
2019-05-10T17:34:08.125Z,100572.96
2019-05-10T17:35:44.164Z,100571.80
2019-05-10T17:37:19.258Z,100571.80
2019-05-10T17:38:55.587Z,100567.84
2019-05-10T17:40:31.604Z,100574.92
2019-05-10T17:42:06.306Z,100572.02
2019-05-10T17:43:41.163Z,100568.12
2019-05-10T17:45:15.973Z,100568.12
2019-05-10T17:46:55.382Z,100564.52
2019-05-10T17:48:27.178Z,100564.52
2019-05-10T17:50:03.125Z,100575.17
2019-05-10T17:51:37.800Z,100575.17
2019-05-10T17:53:12.674Z,100576.20
2019-05-10T17:54:47.323Z,100584.30
2019-05-10T17:56:22.346Z,100586.16
2019-05-10T17:57:57.021Z,100582.06
2019-05-10T17:59:32.956Z,100588.41
2019-05-10T18:01:20.881Z,100588.41
2019-05-10T18:02:55.741Z,100578.72
2019-05-10T18:04:30.478Z,100578.72
2019-05-10T18:06:05.930Z,100581.31
2019-05-10T18:07:40.668Z,100581.31
2019-05-10T18:09:15.527Z,100575.77
2019-05-10T18:10:50.197Z,100568.66
2019-05-10T18:12:27.118Z,100568.66
2019-05-10T18:14:01.405Z,100575.72
2019-05-10T18:15:36.325Z,100575.72
2019-05-10T18:17:11.019Z,100579.36
2019-05-10T18:18:48.228Z,100579.36
2019-05-10T18:20:22.364Z,100578.03
2019-05-10T18:22:00.793Z,100578.03
2019-05-10T18:23:33.586Z,100583.86
2019-05-10T18:25:19.277Z,100583.48